Time;durP1;ratioP1;P1;durP2;ratioP2;P2;SDS_P1;SDS_P2;PMS_P1;PMS_P2;Temp;Humidity;BMP_temperature;BMP_pressure;BME280_temperature;BME280_humidity;BME280_pressure;Samples;Min_cycle;Max_cycle;Signal;HPM_P1;HPM_P2
2022/03/05 00:01:25;;;;;;;20.38;14.43;;;1.70;99.90;;;;;;6209246;23;20064;-80
2022/03/05 00:03:51;;;;;;;19.65;14.32;;;1.70;99.90;;;;;;6210830;23;20052;-79
2022/03/05 00:06:17;;;;;;;21.17;14.68;;;1.70;99.90;;;;;;6183647;23;20013;-79
2022/03/05 00:08:42;;;;;;;20.23;14.48;;;1.70;99.90;;;;;;6210991;23;20094;-79
2022/03/05 00:11:08;;;;;;;21.63;14.63;;;1.70;99.90;;;;;;6184539;23;20020;-79
2022/03/05 00:13:36;;;;;;;20.73;14.70;;;1.60;99.90;;;;;;6184311;23;20039;-79
2022/03/05 00:16:01;;;;;;;;;;;1.60;99.90;;;;;;6211026;23;20546;-79
2022/03/05 00:18:27;;;;;;;19.77;13.63;;;1.60;99.90;;;;;;6184645;23;19951;-79
2022/03/05 00:20:53;;;;;;;22.02;14.02;;;1.50;99.90;;;;;;6209956;23;20020;-79
2022/03/05 00:23:18;;;;;;;21.70;15.00;;;1.50;99.90;;;;;;6211545;23;20344;-80
2022/03/05 00:25:44;;;;;;;21.05;15.10;;;1.50;99.90;;;;;;6211055;23;20376;-79
2022/03/05 00:28:11;;;;;;;19.77;14.25;;;1.50;99.90;;;;;;6183224;23;20101;-79
2022/03/05 00:30:36;;;;;;;21.83;14.90;;;1.50;99.90;;;;;;6184653;23;20089;-80
2022/03/05 00:33:02;;;;;;;21.30;14.43;;;1.40;99.90;;;;;;6183898;23;20523;-80
2022/03/05 00:35:29;;;;;;;21.33;14.65;;;1.40;99.90;;;;;;6210614;23;20017;-80
2022/03/05 00:37:55;;;;;;;20.75;14.15;;;1.40;99.90;;;;;;6183955;23;20017;-80
2022/03/05 00:40:21;;;;;;;20.23;14.70;;;1.30;99.90;;;;;;6214184;23;20104;-80
2022/03/05 00:42:46;;;;;;;19.90;14.55;;;1.30;99.90;;;;;;6209623;23;20582;-79
2022/03/05 00:45:12;;;;;;;17.70;13.10;;;1.30;99.90;;;;;;6184485;23;20025;-80
2022/03/05 00:47:38;;;;;;;20.58;14.80;;;1.30;99.90;;;;;;6184728;23;20051;-79
2022/03/05 00:50:05;;;;;;;20.58;14.43;;;1.30;99.90;;;;;;6209867;23;20448;-80
2022/03/05 00:52:31;;;;;;;;;;;1.30;99.90;;;;;;6185619;23;20024;-80
2022/03/05 00:54:56;;;;;;;19.55;13.93;;;1.20;99.90;;;;;;6183024;23;19995;-79
2022/03/05 00:57:22;;;;;;;21.25;14.65;;;1.20;99.90;;;;;;6184234;23;20078;-79
2022/03/05 00:59:48;;;;;;;22.42;14.07;;;1.20;99.90;;;;;;6184042;23;20013;-80
2022/03/05 01:02:13;;;;;;;22.92;14.30;;;1.20;99.90;;;;;;6210344;23;20020;-80
2022/03/05 01:04:39;;;;;;;20.48;14.20;;;1.30;99.90;;;;;;6183842;23;20103;-80
2022/03/05 01:07:05;;;;;;;19.67;13.48;;;1.20;99.90;;;;;;6210199;23;20012;-79
2022/03/05 01:09:30;;;;;;;20.50;14.45;;;1.20;99.90;;;;;;6208535;23;20017;-79
2022/03/05 01:11:56;;;;;;;19.27;13.38;;;1.20;99.90;;;;;;6183607;23;20023;-79
2022/03/05 01:14:21;;;;;;;20.02;13.90;;;1.20;99.90;;;;;;6209604;23;20039;-79
2022/03/05 01:16:47;;;;;;;20.73;14.18;;;1.20;99.90;;;;;;6208236;23;20047;-80
2022/03/05 01:19:13;;;;;;;19.77;13.90;;;1.20;99.90;;;;;;6184432;23;20013;-80
2022/03/05 01:21:39;;;;;;;19.77;13.10;;;1.10;99.90;;;;;;6184273;23;20122;-80
2022/03/05 01:24:05;;;;;;;18.70;13.73;;;1.20;99.90;;;;;;6209822;23;20017;-80
2022/03/05 01:26:31;;;;;;;19.75;13.73;;;1.10;99.90;;;;;;6183004;23;20019;-80
2022/03/05 01:28:57;;;;;;;18.90;13.10;;;1.10;99.90;;;;;;6183308;23;20024;-80
2022/03/05 01:31:23;;;;;;;20.33;13.23;;;1.10;99.90;;;;;;6183207;23;20021;-80
2022/03/05 01:33:48;;;;;;;18.48;13.15;;;1.10;99.90;;;;;;6183131;23;20487;-80
2022/03/05 01:36:14;;;;;;;21.23;12.63;;;1.10;99.90;;;;;;6184470;23;20016;-80
2022/03/05 01:38:39;;;;;;;18.20;13.13;;;1.10;99.90;;;;;;6183536;23;20017;-80
2022/03/05 01:41:05;;;;;;;19.70;12.75;;;1.00;99.90;;;;;;6183997;23;20017;-79
2022/03/05 01:43:31;;;;;;;18.40;13.00;;;1.00;99.90;;;;;;6184555;23;20024;-79
2022/03/05 01:45:56;;;;;;;18.40;12.10;;;1.00;99.90;;;;;;6209596;23;20280;-79
2022/03/05 01:48:22;;;;;;;17.77;12.63;;;1.00;99.90;;;;;;6185160;23;20020;-79
2022/03/05 01:50:47;;;;;;;17.63;12.05;;;1.00;99.90;;;;;;6211121;23;20013;-80
2022/03/05 01:53:14;;;;;;;16.88;12.23;;;1.00;99.90;;;;;;6209717;23;20024;-80
2022/03/05 01:55:40;;;;;;;17.95;12.10;;;0.90;99.90;;;;;;6184087;23;20017;-79
2022/03/05 01:58:06;;;;;;;18.97;12.40;;;0.90;99.90;;;;;;6183527;23;20017;-79
2022/03/05 02:00:32;;;;;;;18.95;12.38;;;0.90;99.90;;;;;;6210149;23;20368;-80
2022/03/05 02:02:57;;;;;;;19.17;12.70;;;0.90;99.90;;;;;;6182713;23;20021;-80
2022/03/05 02:05:23;;;;;;;18.05;12.18;;;0.90;99.90;;;;;;6182774;23;20009;-80
2022/03/05 02:07:49;;;;;;;17.73;11.95;;;0.90;99.90;;;;;;6182620;23;20449;-79
2022/03/05 02:10:15;;;;;;;18.08;11.38;;;0.80;99.90;;;;;;6184594;23;20051;-79
2022/03/05 02:12:41;;;;;;;18.02;11.25;;;0.80;99.90;;;;;;6181951;23;20074;-79
2022/03/05 02:15:08;;;;;;;15.50;10.95;;;0.90;99.90;;;;;;6210010;23;20051;-79
2022/03/05 02:17:35;;;;;;;16.13;10.57;;;0.90;99.90;;;;;;6210601;23;20016;-80
2022/03/05 02:20:01;;;;;;;15.55;10.45;;;0.90;99.90;;;;;;6208371;23;20020;-79
2022/03/05 02:22:26;;;;;;;17.23;11.00;;;0.80;99.90;;;;;;6210878;23;20013;-80
2022/03/05 02:24:58;;;;;;;16.45;11.15;;;0.80;99.90;;;;;;6209312;23;20017;-80
2022/03/05 02:27:24;;;;;;;17.13;10.75;;;0.80;99.90;;;;;;6209633;23;20027;-79
2022/03/05 02:29:51;;;;;;;18.30;11.10;;;0.80;99.90;;;;;;6213202;23;20013;-79
2022/03/05 02:32:16;;;;;;;15.35;10.93;;;0.80;99.90;;;;;;6211036;23;20332;-79
2022/03/05 02:34:43;;;;;;;18.08;11.20;;;0.80;99.90;;;;;;6182726;23;20012;-79
2022/03/05 02:37:10;;;;;;;19.27;10.63;;;0.90;99.90;;;;;;6183359;23;20017;-79
2022/03/05 02:39:36;;;;;;;18.52;11.48;;;0.80;99.90;;;;;;6210190;23;20047;-80
2022/03/05 02:42:02;;;;;;;16.08;11.77;;;0.80;99.90;;;;;;6182981;23;20392;-79
2022/03/05 02:44:28;;;;;;;18.50;11.23;;;0.80;99.90;;;;;;6210415;23;20059;-79
2022/03/05 02:46:53;;;;;;;17.25;11.55;;;0.80;99.90;;;;;;6185100;23;20028;-79
2022/03/05 02:49:19;;;;;;;18.38;11.38;;;0.80;99.90;;;;;;6185126;23;20046;-79
2022/03/05 02:51:44;;;;;;;20.10;11.10;;;0.80;99.90;;;;;;6212242;23;20020;-80
2022/03/05 02:54:10;;;;;;;16.42;10.77;;;0.80;99.90;;;;;;6186143;23;20452;-79
2022/03/05 02:56:36;;;;;;;19.05;11.70;;;0.70;99.90;;;;;;6211893;23;20376;-79
2022/03/05 02:59:01;;;;;;;19.13;11.52;;;0.70;99.90;;;;;;6185522;23;20019;-79
2022/03/05 03:01:27;;;;;;;16.67;10.88;;;0.70;99.90;;;;;;6185057;23;20294;-80
2022/03/05 03:03:53;;;;;;;16.48;10.88;;;0.70;99.90;;;;;;6211506;23;20020;-80
2022/03/05 03:06:18;;;;;;;19.65;11.20;;;0.70;99.90;;;;;;6185883;23;20063;-79
2022/03/05 03:08:44;;;;;;;18.42;11.25;;;0.60;99.90;;;;;;6184874;23;20020;-79
2022/03/05 03:11:09;;;;;;;18.42;10.45;;;0.60;99.90;;;;;;6210710;23;20076;-79
2022/03/05 03:13:37;;;;;;;17.33;10.88;;;0.60;99.90;;;;;;6185831;23;20028;-79
2022/03/05 03:16:03;;;;;;;17.85;11.13;;;0.60;99.90;;;;;;6210889;23;20179;-79
2022/03/05 03:18:28;;;;;;;15.15;10.85;;;0.50;99.90;;;;;;6186113;23;20028;-79
2022/03/05 03:20:54;;;;;;;16.45;11.25;;;0.50;99.90;;;;;;6183881;23;20336;-80
2022/03/05 03:23:19;;;;;;;18.75;11.73;;;0.50;99.90;;;;;;6184900;23;20021;-80
2022/03/05 03:25:45;;;;;;;18.83;11.57;;;0.50;99.90;;;;;;6184153;23;20776;-80
2022/03/05 03:28:11;;;;;;;19.17;11.32;;;0.50;99.90;;;;;;6219490;23;20058;-79
2022/03/05 03:30:36;;;;;;;17.65;11.10;;;0.40;99.90;;;;;;6188709;23;20019;-79
2022/03/05 03:33:02;;;;;;;16.00;10.90;;;0.40;99.90;;;;;;6217263;23;20376;-79
2022/03/05 03:35:28;;;;;;;17.88;11.05;;;0.40;99.90;;;;;;6186138;23;20043;-80
2022/03/05 03:37:54;;;;;;;18.55;10.98;;;0.40;99.90;;;;;;6184600;23;20020;-80
2022/03/05 03:40:20;;;;;;;18.45;11.48;;;0.40;99.90;;;;;;6185162;23;20012;-79
2022/03/05 03:42:49;;;;;;;18.80;10.80;;;0.40;99.90;;;;;;6183386;23;20159;-80
2022/03/05 03:45:16;;;;;;;17.90;10.75;;;0.40;99.90;;;;;;6210906;23;20377;-80
2022/03/05 03:47:45;;;;;;;19.58;11.30;;;0.40;99.90;;;;;;6185588;23;20025;-80
2022/03/05 03:50:12;;;;;;;17.40;11.05;;;0.40;99.90;;;;;;6211362;23;20025;-80
2022/03/05 03:52:38;;;;;;;;;;;0.40;99.90;;;;;;6211855;23;20433;-80
2022/03/05 03:55:06;;;;;;;19.15;11.35;;;0.40;99.90;;;;;;6181703;23;19926;-80
2022/03/05 03:57:32;;;;;;;17.08;10.27;;;0.30;99.90;;;;;;6184636;23;20020;-80
2022/03/05 03:59:58;;;;;;;19.58;11.40;;;0.30;99.90;;;;;;6183556;23;20013;-81
2022/03/05 04:02:23;;;;;;;17.27;11.15;;;0.30;99.90;;;;;;6212162;23;20023;-80
2022/03/05 04:04:49;;;;;;;20.20;11.40;;;0.30;99.90;;;;;;6183317;23;20023;-80
2022/03/05 04:10:00;;;;;;;19.38;11.32;;;0.40;99.90;;;;;;6184416;23;20441;-80
2022/03/05 04:12:25;;;;;;;16.27;10.88;;;0.30;99.90;;;;;;6210424;23;20063;-80
2022/03/05 04:14:51;;;;;;;17.45;11.05;;;0.30;99.90;;;;;;6210421;23;20041;-81
2022/03/05 04:17:16;;;;;;;17.08;10.93;;;0.30;99.90;;;;;;6185219;23;20330;-80
2022/03/05 04:19:43;;;;;;;18.80;10.70;;;0.30;99.90;;;;;;6186958;23;20035;-80
2022/03/05 04:22:09;;;;;;;16.05;9.85;;;0.30;99.90;;;;;;6212629;23;20104;-81
2022/03/05 04:24:35;;;;;;;19.77;11.60;;;0.30;99.90;;;;;;6184648;23;20055;-80
2022/03/05 04:27:01;;;;;;;17.27;10.68;;;0.30;99.90;;;;;;6183290;23;20021;-80
2022/03/05 04:29:27;;;;;;;15.85;10.25;;;0.30;99.90;;;;;;6211690;23;20016;-81
2022/03/05 04:31:53;;;;;;;18.13;10.98;;;0.30;99.90;;;;;;6184513;23;20103;-80
2022/03/05 04:34:19;;;;;;;17.65;10.65;;;0.30;99.90;;;;;;6184134;23;20092;-80
2022/03/05 04:36:45;;;;;;;18.73;10.88;;;0.30;99.90;;;;;;6209867;23;20012;-81
2022/03/05 04:39:10;;;;;;;19.75;11.35;;;0.20;99.90;;;;;;6184890;23;20039;-80
2022/03/05 04:41:36;;;;;;;17.13;10.52;;;0.20;99.90;;;;;;6209975;23;20016;-80
2022/03/05 04:44:02;;;;;;;20.95;11.98;;;0.20;99.90;;;;;;6183469;23;20489;-80
2022/03/05 04:46:28;;;;;;;17.80;11.23;;;0.20;99.90;;;;;;6209775;23;20111;-80
2022/03/05 04:48:54;;;;;;;17.90;11.35;;;0.20;99.90;;;;;;6182302;23;20017;-79
2022/03/05 04:51:19;;;;;;;22.10;11.43;;;0.20;99.90;;;;;;6211741;23;20021;-80
2022/03/05 04:53:45;;;;;;;17.42;11.27;;;0.20;99.90;;;;;;6183949;23;20016;-80
2022/03/05 04:56:11;;;;;;;17.55;11.07;;;0.10;99.90;;;;;;6183032;23;20055;-79
2022/03/05 04:58:36;;;;;;;17.20;10.90;;;0.10;99.90;;;;;;6212017;23;20051;-79
2022/03/05 05:01:03;;;;;;;19.30;11.68;;;0.10;99.90;;;;;;6211066;23;20020;-79
2022/03/05 05:03:28;;;;;;;18.80;10.68;;;0.00;99.90;;;;;;6211143;23;20076;-80
2022/03/05 05:05:54;;;;;;;19.17;11.75;;;0.00;99.90;;;;;;6209662;23;20449;-80
2022/03/05 05:08:20;;;;;;;17.00;11.35;;;0.00;99.90;;;;;;6209812;23;20021;-80
2022/03/05 05:10:46;;;;;;;18.52;11.60;;;0.00;99.90;;;;;;6208939;23;20067;-80
2022/03/05 05:13:11;;;;;;;24.77;11.45;;;0.00;99.90;;;;;;6184436;23;20024;-80
2022/03/05 05:15:37;;;;;;;17.80;11.38;;;0.00;99.90;;;;;;6183936;23;20016;-80
2022/03/05 05:18:03;;;;;;;17.80;11.25;;;0.00;99.90;;;;;;6183620;23;20519;-80
2022/03/05 05:20:30;;;;;;;19.50;11.02;;;0.00;99.90;;;;;;6183809;23;20020;-80
2022/03/05 05:22:56;;;;;;;20.43;11.00;;;0.00;99.90;;;;;;6182950;23;20048;-80
2022/03/05 05:25:22;;;;;;;18.52;11.27;;;0.00;99.90;;;;;;6209412;23;20244;-80
2022/03/05 05:27:48;;;;;;;17.73;11.15;;;0.00;99.90;;;;;;6182506;23;20020;-80
2022/03/05 05:30:14;;;;;;;17.55;10.73;;;0.00;99.90;;;;;;6183301;23;20039;-80
2022/03/05 05:32:40;;;;;;;19.23;11.43;;;0.00;99.90;;;;;;6184827;23;20075;-80
2022/03/05 05:35:06;;;;;;;18.40;10.88;;;0.00;99.90;;;;;;6183358;23;20043;-80
2022/03/05 05:37:32;;;;;;;19.23;11.40;;;0.00;99.90;;;;;;6209564;23;20314;-80
2022/03/05 05:39:57;;;;;;;18.50;10.38;;;0.00;99.90;;;;;;6210482;23;20013;-80
2022/03/05 05:42:23;;;;;;;19.33;10.80;;;0.00;99.90;;;;;;6210521;23;20024;-79
2022/03/05 05:44:49;;;;;;;15.50;10.02;;;0.00;99.90;;;;;;6182139;23;20012;-79
2022/03/05 05:47:15;;;;;;;18.10;10.98;;;0.00;99.90;;;;;;6210867;23;20028;-80
2022/03/05 05:49:40;;;;;;;17.88;10.35;;;0.00;99.90;;;;;;6183898;23;20016;-80
2022/03/05 05:52:06;;;;;;;16.20;10.43;;;0.00;99.90;;;;;;6182681;23;20020;-79
2022/03/05 05:54:32;;;;;;;21.40;10.80;;;0.00;99.90;;;;;;6208906;23;20016;-79
2022/03/05 05:56:58;;;;;;;16.48;10.43;;;0.00;99.90;;;;;;6183123;23;20012;-79
2022/03/05 05:59:23;;;;;;;17.50;10.65;;;-0.10;99.90;;;;;;6183482;23;20147;-80
2022/03/05 06:01:49;;;;;;;17.25;11.07;;;-0.10;99.90;;;;;;6210481;23;20012;-79
2022/03/05 06:04:15;;;;;;;17.35;10.07;;;0.00;99.90;;;;;;6182287;23;20017;-79
2022/03/05 06:06:40;;;;;;;17.33;10.32;;;-0.10;99.90;;;;;;6183651;23;20020;-79
2022/03/05 06:09:06;;;;;;;16.38;10.00;;;-0.10;99.90;;;;;;6184416;23;20044;-79
2022/03/05 06:11:32;;;;;;;16.60;9.88;;;-0.10;99.90;;;;;;6212623;23;20432;-79
2022/03/05 06:13:57;;;;;;;16.60;10.13;;;-0.10;99.90;;;;;;6210575;23;20020;-80
2022/03/05 06:16:23;;;;;;;19.08;10.00;;;-0.10;99.90;;;;;;6210358;23;20020;-80
2022/03/05 06:18:48;;;;;;;17.25;10.20;;;-0.10;99.90;;;;;;6209008;23;20067;-80
2022/03/05 06:21:14;;;;;;;15.90;10.30;;;-0.10;99.90;;;;;;6210489;23;20091;-79
2022/03/05 06:23:40;;;;;;;17.20;10.52;;;-0.10;99.90;;;;;;6184588;23;20016;-79
2022/03/05 06:26:06;;;;;;;18.55;9.73;;;-0.10;99.90;;;;;;6181168;23;20103;-79
2022/03/05 06:28:32;;;;;;;19.38;9.93;;;-0.10;99.90;;;;;;6183853;23;20039;-80
2022/03/05 06:30:58;;;;;;;17.17;10.20;;;-0.10;99.90;;;;;;6209213;23;20017;-80
2022/03/05 06:33:24;;;;;;;19.65;10.80;;;-0.10;99.90;;;;;;6208438;23;20040;-79
2022/03/05 06:35:50;;;;;;;15.15;9.77;;;-0.10;99.90;;;;;;6208873;23;20017;-80
2022/03/05 06:38:16;;;;;;;18.40;10.43;;;-0.10;99.90;;;;;;6183769;23;20432;-80
2022/03/05 06:40:41;;;;;;;18.40;10.98;;;-0.10;99.90;;;;;;6183158;23;20008;-80
2022/03/05 06:43:07;;;;;;;20.27;10.63;;;0.00;99.90;;;;;;6207966;23;20020;-78
2022/03/05 06:45:32;;;;;;;18.10;10.55;;;0.00;99.90;;;;;;6211106;23;20020;-80
2022/03/05 06:47:58;;;;;;;16.45;10.68;;;0.10;99.90;;;;;;6209342;23;20417;-80
2022/03/05 06:50:24;;;;;;;17.83;10.85;;;0.10;99.90;;;;;;6204105;23;20053;-80
2022/03/05 06:52:50;;;;;;;17.95;10.57;;;0.10;99.90;;;;;;6181404;23;20044;-80
2022/03/05 06:55:16;;;;;;;17.55;10.48;;;0.10;99.90;;;;;;6209131;23;20019;-80
2022/03/05 06:57:43;;;;;;;18.48;11.15;;;0.10;99.90;;;;;;6210082;23;20091;-80
2022/03/05 07:00:10;;;;;;;19.67;11.38;;;0.10;99.90;;;;;;6182350;23;20183;-77
2022/03/05 07:02:36;;;;;;;17.73;10.32;;;0.20;99.90;;;;;;6182031;23;20029;-77
2022/03/05 07:05:02;;;;;;;18.30;11.25;;;0.20;99.90;;;;;;6208822;23;20430;-77
2022/03/05 07:07:27;;;;;;;20.23;11.45;;;0.30;99.90;;;;;;6205991;23;20017;-77
2022/03/05 07:09:53;;;;;;;20.27;12.40;;;0.30;99.90;;;;;;6181082;23;20013;-76
2022/03/05 07:12:19;;;;;;;19.17;11.77;;;0.40;99.90;;;;;;6183334;23;20352;-77
2022/03/05 07:14:44;;;;;;;17.92;12.02;;;0.40;99.90;;;;;;6208676;23;20013;-78
2022/03/05 07:17:10;;;;;;;20.05;12.20;;;0.50;99.90;;;;;;6182348;23;20059;-76
2022/03/05 07:19:36;;;;;;;17.85;11.45;;;0.50;99.90;;;;;;6183247;23;20480;-77
2022/03/05 07:22:02;;;;;;;21.10;13.38;;;0.60;99.90;;;;;;6208520;23;20798;-77
2022/03/05 07:24:27;;;;;;;18.20;11.98;;;0.70;99.90;;;;;;6209447;23;20019;-78
2022/03/05 07:26:53;;;;;;;20.23;13.27;;;0.70;99.90;;;;;;6180737;23;20012;-77
2022/03/05 07:29:18;;;;;;;20.15;12.90;;;0.70;99.90;;;;;;6181543;23;20483;-77
2022/03/05 07:31:47;;;;;;;21.75;13.18;;;0.80;99.90;;;;;;6211373;23;20093;-78
2022/03/05 07:34:13;;;;;;;21.83;13.32;;;0.80;99.90;;;;;;6184011;23;20028;-76
2022/03/05 07:36:39;;;;;;;24.95;13.88;;;0.90;99.90;;;;;;6184114;23;20020;-76
2022/03/05 07:39:08;;;;;;;23.77;13.20;;;0.90;99.90;;;;;;6211563;23;20024;-78
2022/03/05 07:41:36;;;;;;;23.60;14.40;;;1.00;99.90;;;;;;6210912;23;20017;-78
2022/03/05 07:44:02;;;;;;;21.52;13.57;;;1.00;99.90;;;;;;6209956;23;20441;-77
2022/03/05 07:46:28;;;;;;;22.63;14.35;;;1.10;99.90;;;;;;6184002;23;20013;-77
2022/03/05 07:48:54;;;;;;;23.65;13.88;;;1.10;99.90;;;;;;6210848;23;20020;-77
2022/03/05 07:51:20;;;;;;;21.70;14.05;;;1.20;99.90;;;;;;6184468;23;20019;-76
2022/03/05 07:53:45;;;;;;;25.45;13.93;;;1.20;99.90;;;;;;6184087;23;20024;-76
2022/03/05 07:56:11;;;;;;;22.80;13.65;;;1.30;99.90;;;;;;6210442;23;20019;-75
2022/03/05 07:58:37;;;;;;;20.90;14.18;;;1.30;99.90;;;;;;6184124;23;20028;-76
2022/03/05 08:01:03;;;;;;;24.67;14.32;;;1.40;99.90;;;;;;6187430;23;20386;-77
2022/03/05 08:03:28;;;;;;;22.10;14.45;;;1.40;99.90;;;;;;6212207;23;20024;-76
2022/03/05 08:05:54;;;;;;;24.83;14.60;;;1.50;99.90;;;;;;6182321;23;20428;-76
2022/03/05 08:08:20;;;;;;;23.52;15.15;;;1.50;99.90;;;;;;6184244;23;20024;-75
2022/03/05 08:10:45;;;;;;;23.95;15.48;;;1.60;99.90;;;;;;6183806;23;20017;-76
2022/03/05 08:13:12;;;;;;;23.13;15.35;;;1.60;99.90;;;;;;6210309;23;20092;-76
2022/03/05 08:15:38;;;;;;;23.93;15.07;;;1.70;99.90;;;;;;6184458;23;20095;-77
2022/03/05 08:18:04;;;;;;;26.15;15.95;;;1.70;99.90;;;;;;6181766;23;20397;-77
2022/03/05 08:20:31;;;;;;;25.20;16.35;;;1.80;99.90;;;;;;6182109;23;20070;-75
2022/03/05 08:22:58;;;;;;;28.63;15.85;;;1.80;99.90;;;;;;6209397;23;20033;-75
2022/03/05 08:25:24;;;;;;;26.63;15.63;;;1.90;99.90;;;;;;6209123;23;20020;-79
2022/03/05 08:27:50;;;;;;;26.42;16.58;;;2.00;99.90;;;;;;6182591;23;20437;-76
2022/03/05 08:30:16;;;;;;;28.48;17.20;;;2.00;99.90;;;;;;6184779;23;20107;-76
2022/03/05 08:32:43;;;;;;;26.35;16.35;;;2.10;99.90;;;;;;6184508;23;20056;-76
2022/03/05 08:35:09;;;;;;;25.30;15.52;;;2.10;99.90;;;;;;6211517;23;20016;-74
2022/03/05 08:37:36;;;;;;;29.20;17.27;;;2.20;99.90;;;;;;6212092;23;20009;-74
2022/03/05 08:40:04;;;;;;;25.08;16.33;;;2.20;99.90;;;;;;6211075;23;20487;-75
2022/03/05 08:42:30;;;;;;;29.80;17.17;;;2.30;99.90;;;;;;6183611;23;20021;-75
2022/03/05 08:44:56;;;;;;;25.17;17.05;;;2.30;99.90;;;;;;6184768;23;20024;-74
2022/03/05 08:47:21;;;;;;;26.85;17.08;;;2.40;99.90;;;;;;6210823;23;20092;-74
2022/03/05 08:49:47;;;;;;;25.42;16.55;;;2.40;99.90;;;;;;6184202;23;20036;-76
2022/03/05 08:52:12;;;;;;;24.73;16.50;;;2.40;99.90;;;;;;6211066;23;20495;-77
2022/03/05 08:54:38;;;;;;;28.10;17.63;;;2.50;99.90;;;;;;6211155;23;20018;-76
2022/03/05 08:57:04;;;;;;;27.45;17.55;;;2.50;99.90;;;;;;6210785;23;20020;-75
2022/03/05 08:59:30;;;;;;;26.23;17.10;;;2.60;99.90;;;;;;6185676;23;20040;-78
2022/03/05 09:01:56;;;;;;;29.23;17.63;;;2.60;99.90;;;;;;6210425;23;20017;-76
2022/03/05 09:04:21;;;;;;;28.13;18.27;;;2.70;99.90;;;;;;6211791;23;20031;-76
2022/03/05 09:06:47;;;;;;;28.02;18.08;;;2.70;99.90;;;;;;6183588;23;20028;-76
2022/03/05 09:09:13;;;;;;;26.50;17.75;;;2.70;99.90;;;;;;6209286;23;20016;-78
2022/03/05 09:11:39;;;;;;;28.45;19.23;;;2.80;99.90;;;;;;6184476;23;20031;-75
2022/03/05 09:14:05;;;;;;;29.90;17.90;;;2.80;99.90;;;;;;6182871;23;20056;-75
2022/03/05 09:16:32;;;;;;;28.77;20.33;;;2.80;99.90;;;;;;6183085;23;20455;-75
2022/03/05 09:18:57;;;;;;;28.85;17.60;;;2.90;99.90;;;;;;6183214;23;20020;-75
2022/03/05 09:21:23;;;;;;;27.85;18.17;;;2.90;99.90;;;;;;6208605;23;20020;-76
2022/03/05 09:23:48;;;;;;;27.88;17.95;;;3.00;99.90;;;;;;6209689;23;20024;-76
2022/03/05 09:26:15;;;;;;;28.35;18.98;;;3.10;99.90;;;;;;6185182;23;20020;-76
2022/03/05 09:28:41;;;;;;;26.33;18.17;;;3.10;99.90;;;;;;6210289;23;20017;-74
2022/03/05 09:31:06;;;;;;;26.73;17.70;;;3.10;99.90;;;;;;6210279;23;20028;-76
2022/03/05 09:33:32;;;;;;;28.02;19.27;;;3.20;99.90;;;;;;6185410;23;20025;-75
2022/03/05 09:35:58;;;;;;;27.80;18.88;;;3.20;99.90;;;;;;6183429;23;20016;-75
2022/03/05 09:38:23;;;;;;;27.63;19.75;;;3.30;99.90;;;;;;6211400;23;20534;-73
2022/03/05 09:40:49;;;;;;;27.15;17.40;;;3.30;99.90;;;;;;6210386;23;20012;-74
2022/03/05 09:43:18;;;;;;;27.27;18.33;;;3.40;99.90;;;;;;6210368;23;20024;-73
2022/03/05 09:45:44;;;;;;;29.75;20.02;;;3.40;99.90;;;;;;6184028;23;20070;-79
2022/03/05 09:48:17;;;;;;;26.88;19.67;;;3.40;99.90;;;;;;6181920;23;20028;-81
2022/03/05 09:50:46;;;;;;;32.50;20.20;;;3.50;99.90;;;;;;6210096;23;20016;-78
2022/03/05 09:53:12;;;;;;;31.85;20.63;;;3.60;99.90;;;;;;6181833;23;20082;-77
2022/03/05 09:55:39;;;;;;;29.65;20.35;;;3.70;99.90;;;;;;6182678;23;20016;-76
2022/03/05 09:58:04;;;;;;;31.45;21.63;;;3.70;99.90;;;;;;6206999;23;20023;-76
2022/03/05 10:00:31;;;;;;;27.33;19.52;;;3.80;99.90;;;;;;6207561;23;20501;-76
2022/03/05 10:02:59;;;;;;;27.90;19.60;;;3.80;99.90;;;;;;6181937;23;20017;-76
2022/03/05 10:05:29;;;;;;;28.80;20.67;;;3.90;99.90;;;;;;6181337;23;20023;-74
2022/03/05 10:08:08;;;;;;;29.40;19.88;;;3.90;99.90;;;;;;6209477;23;20355;-74
2022/03/05 10:11:01;;;;;;;29.83;21.08;;;4.00;99.90;;;;;;6182336;23;20456;-74
2022/03/05 10:13:33;;;;;;;31.80;20.77;;;4.10;99.90;;;;;;6183064;23;20601;-74
2022/03/05 10:16:02;;;;;;;29.00;20.73;;;4.10;99.90;;;;;;6182502;23;20456;-74
2022/03/05 10:18:30;;;;;;;29.08;20.40;;;4.20;99.90;;;;;;6181634;23;20488;-74
2022/03/05 10:20:57;;;;;;;31.05;20.85;;;4.30;99.90;;;;;;6208914;23;20325;-74
2022/03/05 10:23:24;;;;;;;30.27;20.45;;;4.30;99.90;;;;;;6208693;23;20084;-74
2022/03/05 10:25:53;;;;;;;29.83;20.63;;;4.30;99.90;;;;;;6180591;23;20091;-73
2022/03/05 10:28:22;;;;;;;34.67;21.77;;;4.40;99.90;;;;;;6209213;23;20016;-74
2022/03/05 10:30:55;;;;;;;30.90;21.55;;;4.40;99.90;;;;;;6209305;23;20027;-72
2022/03/05 10:33:36;;;;;;;29.38;20.75;;;4.50;99.90;;;;;;6181984;23;20100;-71
2022/03/05 10:36:16;;;;;;;30.38;20.73;;;4.60;99.90;;;;;;6182588;23;20462;-72
2022/03/05 10:38:46;;;;;;;29.60;20.98;;;4.50;99.90;;;;;;6180852;23;20021;-72
2022/03/05 10:41:13;;;;;;;31.48;21.02;;;4.60;99.90;;;;;;6209519;23;20020;-73
2022/03/05 10:43:39;;;;;;;30.88;20.60;;;4.60;99.90;;;;;;6181763;23;20052;-73
2022/03/05 10:46:05;;;;;;;30.20;20.85;;;4.70;99.90;;;;;;6207770;23;20393;-73
2022/03/05 10:48:33;;;;;;;30.48;21.23;;;4.80;99.90;;;;;;6208394;23;20028;-73
2022/03/05 10:51:05;;;;;;;27.88;21.05;;;4.80;99.90;;;;;;6208502;23;20073;-74
2022/03/05 10:53:40;;;;;;;32.42;21.13;;;4.90;99.90;;;;;;6207778;23;20528;-74
2022/03/05 10:56:22;;;;;;;29.80;20.33;;;4.90;99.90;;;;;;6208209;23;20690;-73
2022/03/05 10:59:08;;;;;;;31.83;21.73;;;5.00;99.90;;;;;;6209796;23;20036;-74
2022/03/05 11:01:37;;;;;;;29.83;20.45;;;5.00;99.90;;;;;;6209835;23;20054;-73
2022/03/05 11:04:04;;;;;;;31.13;21.75;;;5.10;99.90;;;;;;6183337;23;20361;-72
2022/03/05 11:06:29;;;;;;;31.95;22.48;;;5.20;99.90;;;;;;6185124;23;20013;-76
2022/03/05 11:08:56;;;;;;;32.05;21.80;;;5.20;99.90;;;;;;6211093;23;20151;-78
2022/03/05 11:11:22;;;;;;;31.02;21.17;;;5.30;99.90;;;;;;6210890;23;20019;-75
2022/03/05 11:13:49;;;;;;;31.23;21.88;;;5.30;99.90;;;;;;6211838;23;20044;-76
2022/03/05 11:16:14;;;;;;;29.33;20.75;;;5.40;99.90;;;;;;6185573;23;20059;-73
2022/03/05 11:18:40;;;;;;;30.10;21.08;;;5.40;99.90;;;;;;6185260;23;20028;-73
2022/03/05 11:21:07;;;;;;;30.67;22.00;;;5.50;99.90;;;;;;6184020;23;20383;-73
2022/03/05 11:23:35;;;;;;;33.35;21.30;;;5.50;99.90;;;;;;6185285;23;20119;-73
2022/03/05 11:26:02;;;;;;;30.63;22.33;;;5.60;99.90;;;;;;6212002;23;20028;-75
2022/03/05 11:28:36;;;;;;;31.27;21.48;;;5.60;99.60;;;;;;6211452;23;20094;-74
2022/03/05 11:31:15;;;;;;;30.33;21.38;;;5.60;98.30;;;;;;6184828;23;20024;-75
2022/03/05 11:33:43;;;;;;;30.60;21.23;;;5.60;98.80;;;;;;6211817;23;20020;-73
2022/03/05 11:36:28;;;;;;;29.02;21.08;;;5.70;98.60;;;;;;6211300;23;20403;-74
2022/03/05 11:39:17;;;;;;;30.73;22.20;;;5.70;97.30;;;;;;6211820;23;20081;-73
2022/03/05 11:42:01;;;;;;;32.08;22.17;;;5.80;97.40;;;;;;6211402;23;20028;-72
2022/03/05 11:44:48;;;;;;;29.05;21.42;;;5.80;96.30;;;;;;6211658;23;20109;-72
2022/03/05 11:47:35;;;;;;;29.88;21.60;;;5.90;95.00;;;;;;6208762;23;20031;-73
2022/03/05 11:50:08;;;;;;;34.05;22.45;;;5.90;94.40;;;;;;6210775;23;20341;-73
2022/03/05 11:52:39;;;;;;;31.40;21.90;;;5.90;97.20;;;;;;6212577;23;20013;-73
2022/03/05 11:55:14;;;;;;;31.50;22.02;;;6.00;96.20;;;;;;6184811;23;20082;-72
2022/03/05 11:57:50;;;;;;;31.85;22.10;;;6.10;95.70;;;;;;6183980;23;20024;-74
2022/03/05 12:00:24;;;;;;;31.45;21.63;;;6.10;93.80;;;;;;6184129;23;20143;-73
2022/03/05 12:02:50;;;;;;;30.92;22.73;;;6.10;94.70;;;;;;6209076;23;20017;-72
2022/03/05 12:05:38;;;;;;;32.80;22.80;;;6.20;94.10;;;;;;6183642;23;20024;-72
2022/03/05 12:08:08;;;;;;;31.58;22.40;;;6.20;92.10;;;;;;6210672;23;20496;-72
2022/03/05 12:10:35;;;;;;;30.63;22.05;;;6.30;92.60;;;;;;6184982;23;20016;-73
2022/03/05 12:13:03;;;;;;;34.67;23.42;;;6.30;93.30;;;;;;6184097;23;20020;-72
2022/03/05 12:15:33;;;;;;;31.70;22.20;;;6.40;93.00;;;;;;6185190;23;20035;-72
2022/03/05 12:18:02;;;;;;;29.23;21.58;;;6.40;94.00;;;;;;6183537;23;20108;-71
2022/03/05 12:20:34;;;;;;;30.65;21.70;;;6.50;92.50;;;;;;6211973;23;20396;-72
2022/03/05 12:23:08;;;;;;;30.50;21.30;;;6.60;91.40;;;;;;6183407;23;20352;-72
2022/03/05 12:25:39;;;;;;;33.90;22.00;;;6.60;91.50;;;;;;6184272;23;20344;-73
2022/03/05 12:28:11;;;;;;;30.80;22.40;;;6.60;91.80;;;;;;6183666;23;20028;-73
2022/03/05 12:30:38;;;;;;;29.90;20.67;;;6.70;92.60;;;;;;6211515;23;20074;-76
2022/03/05 12:33:13;;;;;;;32.45;22.67;;;6.80;91.50;;;;;;6209968;23;20016;-75
2022/03/05 12:35:41;;;;;;;29.60;21.17;;;6.80;89.70;;;;;;6184955;23;20032;-75
2022/03/05 12:38:08;;;;;;;31.58;22.60;;;6.80;90.00;;;;;;6211140;23;20031;-73
2022/03/05 12:40:34;;;;;;;32.03;21.37;;;6.90;91.20;;;;;;6184270;23;20019;-73